Time;durP1;ratioP1;P1;durP2;ratioP2;P2;SDS_P1;SDS_P2;PMS_P1;PMS_P2;Temp;Humidity;BMP_temperature;BMP_pressure;BME280_temperature;BME280_humidity;BME280_pressure;Samples;Min_cycle;Max_cycle;Signal;HPM_P1;HPM_P2
2022/08/02 00:02:05;;;;;;;4.10;3.00;;;19.30;99.90;;;;;;5031241;28;20438;-49
2022/08/02 00:04:32;;;;;;;3.67;3.17;;;19.40;99.90;;;;;;5031288;28;20442;-47
2022/08/02 00:06:59;;;;;;;3.93;3.20;;;19.30;99.90;;;;;;5030981;28;20726;-47
2022/08/02 00:09:26;;;;;;;3.50;3.03;;;19.30;99.90;;;;;;5030874;28;20833;-48
2022/08/02 00:11:53;;;;;;;3.93;3.53;;;19.30;99.90;;;;;;5031072;28;20450;-47
2022/08/02 00:14:22;;;;;;;3.70;3.40;;;19.30;99.90;;;;;;5030977;28;20432;-48
2022/08/02 00:16:49;;;;;;;4.17;3.20;;;19.30;99.90;;;;;;5031069;28;20450;-48
2022/08/02 00:19:16;;;;;;;4.10;2.93;;;19.20;99.90;;;;;;5030648;28;20450;-47
2022/08/02 00:21:43;;;;;;;4.20;3.17;;;19.20;99.90;;;;;;5031334;28;20466;-49
2022/08/02 00:24:10;;;;;;;3.63;3.33;;;19.30;99.90;;;;;;5030970;28;20518;-47
2022/08/02 00:26:37;;;;;;;3.50;2.97;;;19.30;99.90;;;;;;5030711;28;20438;-49
2022/08/02 00:29:04;;;;;;;4.70;3.00;;;19.30;99.90;;;;;;5030460;28;20857;-47
2022/08/02 00:31:33;;;;;;;3.67;3.37;;;19.30;99.90;;;;;;5030711;28;20427;-48
2022/08/02 00:34:00;;;;;;;3.80;3.40;;;19.30;99.90;;;;;;5030784;28;20449;-47
2022/08/02 00:36:27;;;;;;;4.67;3.53;;;19.40;99.90;;;;;;5030780;28;20718;-49
2022/08/02 00:38:54;;;;;;;4.10;3.43;;;19.40;99.90;;;;;;5030243;28;20507;-47
2022/08/02 00:41:22;;;;;;;3.53;3.23;;;19.40;99.90;;;;;;5030271;28;20489;-47
2022/08/02 00:43:51;;;;;;;3.97;3.23;;;19.40;99.90;;;;;;5030443;28;20450;-47
2022/08/02 00:46:20;;;;;;;4.40;3.20;;;19.50;99.90;;;;;;5030523;28;20454;-49
2022/08/02 00:48:48;;;;;;;3.17;2.87;;;19.50;99.90;;;;;;5030135;28;20446;-47
2022/08/02 00:51:17;;;;;;;3.27;2.97;;;19.60;99.90;;;;;;5030112;28;20470;-49
2022/08/02 00:53:44;;;;;;;5.00;3.30;;;19.50;99.90;;;;;;5030813;28;20485;-47
2022/08/02 00:56:11;;;;;;;4.00;3.33;;;19.60;99.90;;;;;;5029956;28;20827;-47
2022/08/02 00:58:38;;;;;;;3.90;3.23;;;19.60;99.90;;;;;;5030211;28;20508;-50
2022/08/02 01:01:05;;;;;;;4.93;3.80;;;19.60;99.90;;;;;;5030065;28;20831;-50
2022/08/02 01:03:32;;;;;;;6.37;4.23;;;19.60;99.90;;;;;;5029860;28;20505;-48
2022/08/02 01:06:00;;;;;;;8.50;4.60;;;19.60;99.90;;;;;;5030114;28;20462;-47
2022/08/02 01:08:27;;;;;;;8.80;4.77;;;19.60;99.90;;;;;;5030042;28;20455;-50
2022/08/02 01:10:54;;;;;;;5.97;3.63;;;19.60;99.90;;;;;;5030082;28;20470;-49
2022/08/02 01:13:21;;;;;;;7.30;4.50;;;19.50;99.90;;;;;;5029865;28;20454;-48
2022/08/02 01:15:56;;;;;;;3.63;3.33;;;19.50;99.90;;;;;;5029935;28;20450;-51
2022/08/02 01:18:27;;;;;;;4.60;4.20;;;19.50;99.90;;;;;;5029956;28;20469;-47
2022/08/02 01:21:14;;;;;;;6.57;4.07;;;19.50;99.90;;;;;;5029536;28;20569;-49
2022/08/02 01:24:04;;;;;;;4.07;3.77;;;19.50;99.90;;;;;;5029867;28;20557;-49
2022/08/02 01:26:46;;;;;;;3.87;3.30;;;19.40;99.90;;;;;;5029813;28;20442;-48
2022/08/02 01:29:21;;;;;;;3.70;3.40;;;19.30;99.90;;;;;;5029422;28;20442;-48
2022/08/02 01:31:54;;;;;;;5.17;3.50;;;19.30;99.90;;;;;;5029752;28;20446;-48
2022/08/02 01:34:28;;;;;;;6.93;4.37;;;19.20;99.90;;;;;;5029772;28;20758;-48
2022/08/02 01:36:59;;;;;;;4.07;3.67;;;19.20;99.90;;;;;;5029556;28;20476;-49
2022/08/02 01:39:30;;;;;;;5.10;4.50;;;19.10;99.90;;;;;;5028991;28;21028;-50
2022/08/02 01:41:59;;;;;;;5.10;3.97;;;19.00;99.90;;;;;;5029558;28;20494;-49
2022/08/02 01:44:31;;;;;;;5.17;3.63;;;19.00;99.90;;;;;;5029753;28;20454;-47
2022/08/02 01:47:05;;;;;;;3.80;3.50;;;19.00;99.90;;;;;;5029529;28;20454;-49
2022/08/02 01:49:34;;;;;;;4.57;4.00;;;19.00;99.90;;;;;;5029039;28;20474;-47
2022/08/02 01:52:21;;;;;;;5.37;4.00;;;19.00;99.90;;;;;;5029405;28;20450;-47
2022/08/02 01:54:52;;;;;;;5.63;4.40;;;19.10;99.90;;;;;;5029459;28;20447;-51
2022/08/02 01:57:23;;;;;;;4.10;3.47;;;19.10;99.90;;;;;;5029538;28;20450;-49
2022/08/02 01:59:53;;;;;;;3.37;3.07;;;19.10;99.90;;;;;;5029000;28;20540;-47
2022/08/02 02:02:22;;;;;;;6.43;4.30;;;19.10;99.90;;;;;;5029280;28;20454;-48
2022/08/02 02:04:51;;;;;;;6.67;4.20;;;19.20;99.90;;;;;;5029326;28;20847;-48
2022/08/02 02:07:20;;;;;;;4.57;4.07;;;19.20;99.90;;;;;;5029536;28;20504;-47
2022/08/02 02:09:48;;;;;;;4.00;3.57;;;19.20;99.90;;;;;;5029020;28;20505;-48
2022/08/02 02:12:18;;;;;;;6.97;5.23;;;19.10;99.90;;;;;;5029139;28;20524;-48
2022/08/02 02:14:45;;;;;;;5.13;4.17;;;19.00;99.90;;;;;;5029603;28;20468;-49
2022/08/02 02:17:16;;;;;;;4.10;3.67;;;19.10;99.90;;;;;;5033364;28;20515;-46
2022/08/02 02:19:44;;;;;;;5.20;4.47;;;19.00;99.90;;;;;;5032899;28;20826;-48
2022/08/02 02:22:11;;;;;;;5.50;3.70;;;19.00;99.90;;;;;;5032939;28;20953;-49
2022/08/02 02:24:38;;;;;;;4.67;4.20;;;19.00;99.90;;;;;;5032768;28;20892;-49
2022/08/02 02:27:08;;;;;;;4.43;3.77;;;19.00;99.90;;;;;;5032957;28;20435;-47
2022/08/02 02:29:39;;;;;;;4.73;4.20;;;19.00;99.90;;;;;;5032975;28;20814;-47
2022/08/02 02:32:07;;;;;;;4.37;3.97;;;18.90;99.90;;;;;;5033055;28;21034;-50
2022/08/02 02:34:39;;;;;;;5.07;4.30;;;18.90;99.90;;;;;;5032926;28;20529;-49
2022/08/02 02:37:12;;;;;;;4.20;3.67;;;18.90;99.90;;;;;;5032877;28;20962;-47
2022/08/02 02:39:42;;;;;;;5.50;3.90;;;18.90;99.90;;;;;;5032138;28;20454;-52
2022/08/02 02:42:13;;;;;;;4.70;3.80;;;18.90;99.90;;;;;;5032474;28;20473;-48
2022/08/02 02:44:41;;;;;;;4.53;3.90;;;18.90;99.90;;;;;;5032843;28;20478;-49
2022/08/02 02:47:10;;;;;;;4.20;3.73;;;18.90;99.90;;;;;;5032612;28;20435;-47
2022/08/02 02:49:40;;;;;;;5.27;4.40;;;19.00;99.90;;;;;;5032277;28;20543;-47
2022/08/02 02:52:08;;;;;;;4.50;4.10;;;19.10;99.90;;;;;;5032452;28;20981;-48
2022/08/02 02:54:38;;;;;;;4.80;3.60;;;19.10;99.90;;;;;;5032601;28;20540;-48
2022/08/02 02:57:06;;;;;;;5.53;3.63;;;19.20;99.90;;;;;;5032706;28;20926;-47
2022/08/02 02:59:35;;;;;;;3.93;3.57;;;19.10;99.90;;;;;;5032352;28;20564;-49
2022/08/02 03:02:03;;;;;;;5.07;4.23;;;19.10;99.90;;;;;;5032302;28;20503;-47
2022/08/02 03:04:30;;;;;;;5.43;4.30;;;19.10;99.90;;;;;;5032408;28;20458;-48
2022/08/02 03:07:00;;;;;;;6.40;4.50;;;19.10;99.90;;;;;;5032096;28;20485;-48
2022/08/02 03:09:27;;;;;;;3.80;3.50;;;19.10;99.90;;;;;;5031851;28;20496;-50
2022/08/02 03:11:56;;;;;;;5.40;3.30;;;19.10;99.90;;;;;;5032140;28;20515;-50
2022/08/02 03:14:23;;;;;;;6.80;3.53;;;19.10;99.90;;;;;;5032232;28;20442;-47
2022/08/02 03:16:53;;;;;;;3.90;3.50;;;19.20;99.90;;;;;;5032252;28;20446;-47
2022/08/02 03:19:23;;;;;;;4.60;4.03;;;19.20;99.90;;;;;;5031800;28;21002;-47
2022/08/02 03:21:50;;;;;;;3.90;3.50;;;19.20;99.90;;;;;;5031872;28;20543;-50
2022/08/02 03:24:19;;;;;;;4.77;2.73;;;19.10;99.90;;;;;;5031955;28;20858;-49
2022/08/02 03:26:46;;;;;;;5.17;3.47;;;19.10;99.90;;;;;;5031661;28;20451;-52
2022/08/02 03:29:13;;;;;;;13.20;4.40;;;19.00;99.90;;;;;;5031632;28;20477;-48
2022/08/02 03:31:43;;;;;;;3.47;2.53;;;19.00;99.90;;;;;;5031976;28;20500;-49
2022/08/02 03:34:10;;;;;;;2.93;2.10;;;18.80;99.90;;;;;;5031905;28;20442;-49
2022/08/02 03:36:39;;;;;;;3.00;2.43;;;18.80;99.90;;;;;;5031852;28;20497;-48
2022/08/02 03:39:07;;;;;;;2.50;2.10;;;18.70;99.90;;;;;;5031187;28;20935;-48
2022/08/02 03:41:38;;;;;;;2.33;1.83;;;18.70;99.90;;;;;;5031471;28;20470;-48
2022/08/02 03:44:06;;;;;;;3.50;2.20;;;18.70;99.90;;;;;;5031653;28;20439;-48
2022/08/02 03:46:38;;;;;;;2.73;2.10;;;18.70;99.90;;;;;;5031823;28;20939;-49
2022/08/02 03:49:06;;;;;;;3.50;2.43;;;18.70;99.90;;;;;;5031244;28;20766;-47
2022/08/02 03:51:34;;;;;;;2.97;2.67;;;18.70;99.90;;;;;;5139896;22;20483;-50
2022/08/02 03:54:02;;;;;;;2.53;2.30;;;18.80;99.90;;;;;;5091422;28;20447;-53
2022/08/02 03:56:29;;;;;;;2.73;2.53;;;18.80;99.90;;;;;;5091628;28;20474;-50
2022/08/02 03:59:09;;;;;;;2.90;2.50;;;18.80;99.90;;;;;;5091111;28;20443;-50
2022/08/02 04:01:36;;;;;;;3.20;2.20;;;18.80;99.90;;;;;;5091166;28;20467;-51
2022/08/02 04:04:04;;;;;;;4.70;2.40;;;18.80;99.90;;;;;;5091208;28;20472;-51
2022/08/02 04:06:31;;;;;;;2.50;1.83;;;18.80;99.90;;;;;;5090925;28;20427;-50
2022/08/02 04:08:58;;;;;;;2.30;2.10;;;18.80;99.90;;;;;;5090842;28;20457;-50
2022/08/02 04:11:31;;;;;;;3.83;1.73;;;18.80;99.90;;;;;;5091460;28;20881;-52
2022/08/02 04:13:58;;;;;;;1.83;1.53;;;18.80;99.90;;;;;;5091024;28;20508;-51
2022/08/02 04:16:34;;;;;;;2.50;1.53;;;18.80;99.90;;;;;;5091001;28;20501;-50
2022/08/02 04:19:03;;;;;;;2.63;1.60;;;18.70;99.90;;;;;;5090891;28;20480;-49
2022/08/02 04:21:35;;;;;;;2.10;1.40;;;18.60;99.90;;;;;;5090914;28;20492;-50
2022/08/02 04:24:04;;;;;;;3.20;1.40;;;18.60;99.90;;;;;;5091572;28;20693;-51
2022/08/02 04:26:34;;;;;;;2.13;1.27;;;18.60;99.90;;;;;;5091465;28;20493;-52
2022/08/02 04:29:01;;;;;;;1.90;1.20;;;18.60;99.90;;;;;;5090993;28;20940;-50
2022/08/02 04:31:30;;;;;;;1.93;1.20;;;18.50;99.90;;;;;;5091332;28;20549;-50
2022/08/02 04:33:57;;;;;;;1.77;0.97;;;18.50;99.90;;;;;;5091209;28;20420;-50
2022/08/02 04:36:24;;;;;;;1.90;0.97;;;18.60;99.90;;;;;;5091343;28;20960;-51
2022/08/02 04:38:51;;;;;;;1.90;1.07;;;18.60;99.90;;;;;;5090206;28;20532;-50
2022/08/02 04:41:19;;;;;;;2.10;1.07;;;18.60;99.90;;;;;;5090855;28;20892;-53
2022/08/02 04:43:46;;;;;;;1.70;0.90;;;18.60;99.90;;;;;;5090994;28;20841;-51
2022/08/02 04:46:13;;;;;;;2.30;1.00;;;18.60;99.90;;;;;;5091337;28;20475;-52
2022/08/02 04:48:41;;;;;;;1.40;0.83;;;18.60;99.90;;;;;;5091126;28;20440;-51
2022/08/02 04:51:08;;;;;;;1.50;0.93;;;18.60;99.90;;;;;;5090839;28;20532;-53
2022/08/02 04:53:35;;;;;;;1.80;0.90;;;18.60;99.90;;;;;;5091331;28;20496;-52
2022/08/02 04:56:02;;;;;;;1.40;0.70;;;18.50;99.90;;;;;;5090971;28;20797;-51
2022/08/02 04:58:29;;;;;;;1.40;0.60;;;18.60;99.90;;;;;;5090757;28;20456;-50
2022/08/02 05:00:56;;;;;;;1.63;1.00;;;18.50;99.90;;;;;;5090728;28;20513;-50
2022/08/02 05:03:23;;;;;;;1.50;0.80;;;18.50;99.90;;;;;;5090826;28;20448;-50
2022/08/02 05:05:52;;;;;;;1.23;0.73;;;18.50;99.90;;;;;;5090207;28;20846;-50
2022/08/02 05:08:18;;;;;;;1.30;0.70;;;18.40;99.90;;;;;;5090656;28;20956;-50
2022/08/02 05:10:45;;;;;;;2.10;0.77;;;18.40;99.90;;;;;;5090266;28;20451;-53
2022/08/02 05:13:12;;;;;;;1.40;0.70;;;18.40;99.90;;;;;;5090651;28;20473;-51
2022/08/02 05:15:39;;;;;;;2.57;1.00;;;18.50;99.90;;;;;;5090599;28;20471;-50
2022/08/02 05:18:06;;;;;;;1.50;0.90;;;18.40;99.90;;;;;;5090371;28;20450;-52
2022/08/02 05:20:33;;;;;;;1.53;0.73;;;18.40;99.90;;;;;;5090669;28;20464;-50
2022/08/02 05:23:02;;;;;;;1.47;0.60;;;18.40;99.90;;;;;;5090440;28;20475;-50
2022/08/02 05:25:29;;;;;;;1.47;0.70;;;18.50;99.90;;;;;;5090335;28;20955;-50
2022/08/02 05:27:56;;;;;;;1.10;0.40;;;18.40;99.90;;;;;;5090113;28;20451;-52
2022/08/02 05:30:23;;;;;;;1.70;0.50;;;18.50;99.90;;;;;;5089998;28;20464;-52
2022/08/02 05:32:51;;;;;;;1.83;0.60;;;18.50;99.90;;;;;;5090412;28;20830;-50
2022/08/02 05:35:19;;;;;;;1.10;0.50;;;18.40;99.90;;;;;;5090178;28;20432;-52
2022/08/02 05:37:46;;;;;;;1.80;0.83;;;18.30;99.90;;;;;;5089766;28;20916;-50
2022/08/02 05:40:16;;;;;;;1.43;0.70;;;18.30;99.90;;;;;;5089818;28;20509;-50
2022/08/02 05:42:43;;;;;;;1.40;0.70;;;18.30;99.90;;;;;;5089937;28;20988;-52
2022/08/02 05:45:11;;;;;;;2.13;0.83;;;18.30;99.90;;;;;;5090191;28;20439;-49
2022/08/02 05:47:38;;;;;;;1.90;0.80;;;18.30;99.90;;;;;;5090163;28;20443;-50
2022/08/02 05:50:07;;;;;;;2.63;0.67;;;18.30;99.90;;;;;;5089616;28;20475;-51
2022/08/02 05:52:45;;;;;;;1.30;0.63;;;18.20;99.90;;;;;;5090049;28;20496;-50
2022/08/02 05:55:18;;;;;;;2.20;0.77;;;18.20;99.90;;;;;;5090043;28;20920;-51
2022/08/02 05:57:53;;;;;;;1.47;0.70;;;18.20;99.90;;;;;;5090133;28;20447;-50
2022/08/02 06:00:21;;;;;;;1.17;0.60;;;18.20;99.90;;;;;;5089525;28;20558;-52
2022/08/02 06:03:15;;;;;;;5.40;0.70;;;18.20;99.90;;;;;;5089763;28;20531;-52
2022/08/02 06:05:50;;;;;;;1.70;0.53;;;18.20;99.90;;;;;;5089807;28;20962;-50
2022/08/02 06:08:19;;;;;;;2.00;0.50;;;18.10;99.90;;;;;;5089925;28;20558;-50
2022/08/02 06:10:49;;;;;;;1.30;0.60;;;18.10;99.90;;;;;;5089832;28;20491;-52
2022/08/02 06:13:16;;;;;;;1.47;0.77;;;18.20;99.90;;;;;;5089871;28;20436;-50
2022/08/02 06:15:44;;;;;;;6.63;0.90;;;18.30;99.90;;;;;;5089867;28;20443;-50
2022/08/02 06:18:11;;;;;;;2.30;1.10;;;18.40;99.90;;;;;;5089796;28;20709;-51
2022/08/02 06:20:38;;;;;;;5.20;1.43;;;18.50;99.90;;;;;;5089438;28;20986;-50
2022/08/02 06:23:07;;;;;;;3.20;1.40;;;18.50;99.90;;;;;;5089464;28;21096;-52
2022/08/02 06:25:36;;;;;;;1.60;1.07;;;18.60;99.90;;;;;;5089648;28;20785;-50
2022/08/02 06:28:06;;;;;;;4.00;2.37;;;18.70;99.90;;;;;;5089653;28;20987;-51
2022/08/02 06:30:33;;;;;;;21.77;17.73;;;18.70;99.90;;;;;;5089448;28;21065;-50
2022/08/02 06:33:01;;;;;;;2.40;2.20;;;18.70;99.90;;;;;;5089672;28;20480;-50
2022/08/02 06:35:34;;;;;;;2.03;1.10;;;18.80;99.90;;;;;;5089660;28;20436;-51
2022/08/02 06:38:02;;;;;;;2.27;0.90;;;18.80;99.90;;;;;;5089210;28;20996;-50
2022/08/02 06:40:32;;;;;;;1.50;1.07;;;18.80;99.90;;;;;;5089399;28;20471;-49
2022/08/02 06:43:11;;;;;;;2.37;0.90;;;18.80;99.90;;;;;;5089404;28;20520;-50
2022/08/02 06:45:40;;;;;;;1.50;0.83;;;18.90;99.90;;;;;;5089443;28;20482;-52
2022/08/02 06:48:07;;;;;;;6.50;1.87;;;19.00;99.90;;;;;;5089737;28;20933;-52
2022/08/02 06:50:37;;;;;;;20.60;3.47;;;19.00;99.90;;;;;;5089122;28;20559;-53
2022/08/02 06:53:04;;;;;;;7.20;1.90;;;19.00;99.90;;;;;;5089616;28;20440;-50
2022/08/02 06:55:31;;;;;;;2.90;1.23;;;19.00;99.90;;;;;;5089507;28;20498;-49
2022/08/02 06:57:59;;;;;;;3.70;1.43;;;19.10;99.90;;;;;;5089870;28;20456;-51
2022/08/02 07:00:27;;;;;;;2.00;1.57;;;19.10;99.90;;;;;;5088879;28;20463;-51
2022/08/02 07:02:54;;;;;;;1.63;1.50;;;19.10;99.90;;;;;;5092798;28;20521;-51
2022/08/02 07:05:22;;;;;;;2.60;1.20;;;19.10;99.90;;;;;;5093042;28;20439;-52
2022/08/02 07:07:49;;;;;;;2.37;1.90;;;19.20;99.90;;;;;;5092527;28;20471;-50
2022/08/02 07:10:16;;;;;;;1.57;0.87;;;19.20;99.90;;;;;;5092749;28;20471;-51
2022/08/02 07:12:43;;;;;;;1.70;1.23;;;19.20;99.90;;;;;;5093023;28;20488;-50
2022/08/02 07:15:11;;;;;;;2.03;1.37;;;19.20;99.90;;;;;;5092962;28;20648;-50
2022/08/02 07:17:40;;;;;;;2.60;1.67;;;19.30;99.90;;;;;;5092679;28;20434;-53
2022/08/02 07:20:08;;;;;;;1.67;1.20;;;19.30;99.90;;;;;;5092518;28;20517;-50
2022/08/02 07:22:36;;;;;;;2.13;1.20;;;19.30;99.90;;;;;;5092373;28;21009;-49
2022/08/02 07:25:04;;;;;;;3.00;1.33;;;19.30;99.90;;;;;;5092707;28;20492;-51
2022/08/02 07:27:31;;;;;;;1.60;1.10;;;19.30;99.90;;;;;;5092369;28;20436;-53
2022/08/02 07:29:58;;;;;;;1.50;0.90;;;19.20;99.90;;;;;;5092104;28;20881;-51
2022/08/02 07:32:27;;;;;;;2.10;0.90;;;19.20;99.90;;;;;;5092537;28;20436;-50
2022/08/02 07:34:56;;;;;;;2.77;1.20;;;19.20;99.90;;;;;;5092569;28;21003;-49
2022/08/02 07:37:24;;;;;;;1.70;1.20;;;19.20;99.90;;;;;;5092343;28;20809;-55
2022/08/02 07:39:51;;;;;;;1.67;1.07;;;19.20;99.90;;;;;;5092187;28;20448;-49
2022/08/02 07:42:18;;;;;;;3.73;1.10;;;19.20;99.90;;;;;;5092246;28;20471;-51
2022/08/02 07:44:45;;;;;;;1.80;1.33;;;19.30;99.90;;;;;;5092411;28;20443;-49
2022/08/02 07:47:12;;;;;;;1.40;0.70;;;19.40;99.90;;;;;;5092264;28;20451;-52
2022/08/02 07:49:39;;;;;;;2.80;1.23;;;19.40;99.90;;;;;;5091846;28;20448;-50
2022/08/02 07:52:07;;;;;;;1.60;1.00;;;19.50;99.90;;;;;;5092103;28;20447;-54
2022/08/02 07:54:34;;;;;;;4.00;1.40;;;19.50;99.90;;;;;;5092201;28;20475;-50
2022/08/02 07:57:01;;;;;;;5.17;1.60;;;19.60;99.90;;;;;;5092113;28;20505;-50
2022/08/02 07:59:29;;;;;;;2.20;1.60;;;19.60;99.90;;;;;;5091741;28;20431;-53
2022/08/02 08:01:56;;;;;;;4.43;1.50;;;19.70;99.90;;;;;;5091905;28;20562;-50
2022/08/02 08:04:23;;;;;;;2.77;1.17;;;19.80;99.90;;;;;;5091991;28;20443;-53
2022/08/02 08:06:51;;;;;;;1.40;0.80;;;19.90;99.90;;;;;;5091598;28;20462;-50
2022/08/02 08:09:20;;;;;;;1.67;1.17;;;20.00;99.90;;;;;;5091859;28;20576;-51
2022/08/02 08:11:47;;;;;;;1.50;1.03;;;20.00;99.90;;;;;;5091872;28;20526;-51
2022/08/02 08:14:14;;;;;;;1.57;0.80;;;20.20;99.90;;;;;;5090844;28;20444;-52
2022/08/02 08:16:41;;;;;;;1.30;0.60;;;20.30;99.90;;;;;;5091883;28;20440;-50
2022/08/02 08:19:08;;;;;;;1.60;0.73;;;20.30;99.90;;;;;;5091549;28;20439;-53
2022/08/02 08:21:35;;;;;;;1.20;0.60;;;20.40;99.90;;;;;;5091534;28;20460;-51
2022/08/02 08:24:03;;;;;;;1.43;0.90;;;20.50;99.90;;;;;;5091642;28;20447;-53
2022/08/02 08:26:32;;;;;;;1.53;1.17;;;20.70;99.90;;;;;;5091452;28;20526;-52
2022/08/02 08:28:59;;;;;;;1.50;1.17;;;20.80;99.90;;;;;;5091332;28;20497;-52
2022/08/02 08:31:26;;;;;;;1.83;1.30;;;20.90;99.90;;;;;;5091594;28;20487;-51
2022/08/02 08:33:53;;;;;;;2.03;1.00;;;21.00;99.90;;;;;;5091323;28;20435;-51
2022/08/02 08:36:20;;;;;;;2.90;2.23;;;21.10;99.90;;;;;;5091519;28;20478;-50
2022/08/02 08:38:49;;;;;;;3.20;2.83;;;21.10;99.90;;;;;;5090928;28;20470;-50
2022/08/02 08:41:16;;;;;;;1.80;1.20;;;21.20;99.90;;;;;;5091195;28;20452;-50
2022/08/02 08:43:45;;;;;;;1.90;1.20;;;21.30;99.90;;;;;;5090903;28;20559;-50
2022/08/02 08:46:18;;;;;;;1.90;1.20;;;21.40;99.90;;;;;;5091100;28;20489;-48
2022/08/02 08:48:49;;;;;;;2.37;1.47;;;21.30;99.90;;;;;;5090939;28;20485;-47
2022/08/02 08:51:19;;;;;;;2.00;1.50;;;21.40;99.90;;;;;;5090894;28;20502;-53
2022/08/02 08:53:49;;;;;;;2.00;1.37;;;21.40;99.90;;;;;;5090996;28;20496;-52
2022/08/02 08:56:16;;;;;;;4.13;1.57;;;21.40;99.90;;;;;;5090723;28;20427;-47
2022/08/02 08:58:47;;;;;;;1.70;1.30;;;21.40;99.90;;;;;;5090733;28;20483;-47
2022/08/02 09:01:15;;;;;;;2.37;1.30;;;21.50;99.90;;;;;;5090922;28;20451;-48
2022/08/02 09:03:42;;;;;;;2.17;1.10;;;21.50;99.90;;;;;;5090834;28;20467;-49
2022/08/02 09:06:09;;;;;;;2.00;1.40;;;21.70;99.90;;;;;;5090338;28;20505;-50
2022/08/02 09:08:36;;;;;;;3.00;1.40;;;21.70;99.90;;;;;;5090781;28;20508;-49
2022/08/02 09:11:13;;;;;;;4.60;1.60;;;21.80;99.90;;;;;;5090782;28;20463;-49
2022/08/02 09:13:51;;;;;;;2.23;1.50;;;21.90;99.90;;;;;;5090789;28;20439;-48
2022/08/02 09:16:29;;;;;;;2.27;1.27;;;21.90;99.90;;;;;;5090531;28;20432;-48
2022/08/02 09:18:56;;;;;;;3.20;2.00;;;21.90;99.90;;;;;;5090385;28;20876;-49
2022/08/02 09:21:24;;;;;;;2.50;2.07;;;21.80;99.90;;;;;;5090544;28;20467;-48
2022/08/02 09:23:54;;;;;;;2.13;1.73;;;21.80;99.90;;;;;;5090257;28;20477;-48
2022/08/02 09:26:23;;;;;;;3.10;1.50;;;21.80;99.90;;;;;;5090392;28;20493;-48
2022/08/02 09:28:59;;;;;;;1.70;1.30;;;21.80;99.90;;;;;;5090129;28;20447;-47
2022/08/02 09:31:26;;;;;;;2.33;1.50;;;21.70;99.90;;;;;;5090282;28;20534;-49
2022/08/02 09:33:55;;;;;;;2.33;1.90;;;21.70;99.90;;;;;;5090518;28;20489;-50
2022/08/02 09:36:23;;;;;;;2.33;1.47;;;21.60;99.90;;;;;;5090276;28;20456;-51
2022/08/02 09:38:55;;;;;;;2.20;1.40;;;21.60;99.90;;;;;;5089666;28;20435;-47
2022/08/02 09:41:24;;;;;;;1.93;1.57;;;21.60;99.90;;;;;;5090599;28;20478;-48
2022/08/02 09:43:53;;;;;;;1.90;1.40;;;21.60;99.90;;;;;;5089891;28;20471;-52
2022/08/02 09:46:23;;;;;;;1.90;1.30;;;21.60;99.90;;;;;;5090416;28;20447;-52
2022/08/02 09:48:52;;;;;;;1.90;1.20;;;21.60;99.90;;;;;;5089893;28;20475;-49
2022/08/02 09:51:21;;;;;;;2.30;1.40;;;21.70;99.90;;;;;;5139342;22;20848;-51
2022/08/02 09:53:50;;;;;;;1.83;1.40;;;21.60;99.90;;;;;;5069868;28;20498;-47
2022/08/02 09:56:19;;;;;;;2.00;1.60;;;21.60;99.90;;;;;;5069972;28;20488;-47
2022/08/02 09:58:46;;;;;;;3.07;1.93;;;21.60;99.90;;;;;;5069677;28;20502;-50
2022/08/02 10:01:15;;;;;;;2.40;1.40;;;21.50;99.90;;;;;;5069721;28;20517;-50
2022/08/02 10:03:56;;;;;;;2.43;1.37;;;21.60;99.90;;;;;;5069733;28;20785;-47
2022/08/02 10:06:23;;;;;;;2.10;1.63;;;21.50;99.90;;;;;;5069555;28;20474;-47
2022/08/02 10:08:52;;;;;;;2.27;1.67;;;21.60;99.90;;;;;;5069840;28;21140;-49
2022/08/02 10:11:20;;;;;;;2.07;1.17;;;21.60;99.90;;;;;;5069778;28;20502;-51
2022/08/02 10:13:47;;;;;;;1.50;1.10;;;21.60;99.90;;;;;;5069480;28;21050;-48
2022/08/02 10:16:16;;;;;;;3.53;1.90;;;21.60;99.90;;;;;;5069679;28;20525;-48
2022/08/02 10:18:44;;;;;;;3.87;1.57;;;21.60;99.90;;;;;;5069500;28;20453;-50
2022/08/02 10:21:14;;;;;;;7.00;1.87;;;21.60;99.90;;;;;;5069513;28;20502;-47
2022/08/02 10:23:43;;;;;;;2.40;1.70;;;21.60;99.90;;;;;;5069435;28;20567;-47
2022/08/02 10:26:15;;;;;;;2.83;2.50;;;21.70;99.90;;;;;;5069511;28;20474;-50
2022/08/02 10:28:44;;;;;;;4.43;2.03;;;21.70;99.90;;;;;;5069260;28;20436;-52
2022/08/02 10:31:14;;;;;;;2.90;1.70;;;21.70;99.90;;;;;;5069409;28;20456;-47
2022/08/02 10:33:44;;;;;;;1.90;1.70;;;21.70;99.90;;;;;;5069300;28;20843;-50
2022/08/02 10:36:13;;;;;;;2.90;1.60;;;21.70;99.90;;;;;;5070507;28;20509;-48
2022/08/02 10:38:41;;;;;;;2.73;1.87;;;21.80;99.90;;;;;;5073262;28;20451;-46
2022/08/02 10:41:08;;;;;;;3.00;1.67;;;21.80;99.90;;;;;;5072426;28;20968;-50
2022/08/02 10:43:47;;;;;;;2.23;1.60;;;21.80;99.90;;;;;;5072684;28;20476;-50
2022/08/02 10:46:32;;;;;;;2.37;1.80;;;21.90;99.90;;;;;;5071054;28;20432;-48
2022/08/02 10:49:09;;;;;;;2.80;1.50;;;21.90;99.90;;;;;;5071391;28;20476;-52
2022/08/02 10:52:09;;;;;;;2.50;1.40;;;21.90;99.90;;;;;;5070861;28;20468;-48
2022/08/02 10:54:38;;;;;;;2.23;1.30;;;21.90;99.90;;;;;;5050539;28;20441;-48
2022/08/02 10:57:15;;;;;;;2.37;1.50;;;21.90;99.90;;;;;;5052065;28;20918;-47
2022/08/02 10:59:43;;;;;;;2.53;1.47;;;21.90;99.90;;;;;;5052128;28;20921;-48
2022/08/02 11:02:11;;;;;;;1.90;1.20;;;21.90;99.90;;;;;;5053394;28;20469;-48
2022/08/02 11:05:16;;;;;;;1.70;1.20;;;21.90;99.90;;;;;;5052782;28;20888;-49
2022/08/02 11:07:45;;;;;;;1.53;0.90;;;22.00;99.90;;;;;;4990610;28;20486;-47
2022/08/02 11:10:36;;;;;;;1.77;1.33;;;22.10;99.90;;;;;;4990604;28;20583;-50
2022/08/02 11:13:09;;;;;;;1.97;1.30;;;22.10;99.90;;;;;;5030808;28;20437;-48
2022/08/02 11:15:51;;;;;;;1.50;1.00;;;22.20;99.90;;;;;;5052585;28;20429;-48
2022/08/02 11:18:18;;;;;;;3.50;1.20;;;22.30;99.90;;;;;;5052664;28;20441;-47
2022/08/02 11:20:46;;;;;;;1.57;1.30;;;22.40;99.90;;;;;;5052423;28;20488;-48
2022/08/02 11:23:36;;;;;;;2.83;1.50;;;22.30;99.90;;;;;;5052452;28;20680;-48
2022/08/02 11:26:05;;;;;;;1.80;1.10;;;22.40;99.90;;;;;;5052513;28;20449;-50
2022/08/02 11:28:32;;;;;;;1.60;1.30;;;22.40;99.90;;;;;;5052441;28;20451;-51
2022/08/02 11:31:01;;;;;;;2.57;1.30;;;22.40;99.90;;;;;;5051970;28;20540;-49
2022/08/02 11:33:32;;;;;;;1.47;1.10;;;22.40;99.90;;;;;;5052466;28;20472;-51
2022/08/02 11:36:06;;;;;;;2.17;1.40;;;22.40;99.90;;;;;;5052419;28;20476;-47
2022/08/02 11:38:33;;;;;;;3.10;1.30;;;22.30;99.90;;;;;;5052131;28;20441;-47
2022/08/02 11:41:02;;;;;;;5.20;1.73;;;22.40;99.90;;;;;;5051914;28;20473;-47
2022/08/02 11:43:30;;;;;;;1.87;1.00;;;22.30;99.90;;;;;;5052037;28;20473;-47
2022/08/02 11:45:57;;;;;;;2.37;1.20;;;22.30;99.90;;;;;;5052331;28;20460;-49
2022/08/02 11:48:35;;;;;;;24.53;3.77;;;22.30;99.90;;;;;;5051911;28;20438;-49
2022/08/02 11:51:09;;;;;;;7.93;1.80;;;22.30;99.90;;;;;;5051691;28;20468;-48
2022/08/02 11:53:48;;;;;;;3.43;1.47;;;22.30;99.90;;;;;;5051876;28;20520;-49
2022/08/02 11:56:16;;;;;;;2.27;0.97;;;22.30;99.90;;;;;;5051832;28;20446;-47
2022/08/02 11:59:00;;;;;;;2.17;0.97;;;22.30;99.90;;;;;;5051628;28;20450;-53
2022/08/02 12:01:28;;;;;;;1.67;1.03;;;22.40;99.90;;;;;;5051811;28;20461;-50
2022/08/02 12:03:59;;;;;;;3.77;1.27;;;22.40;99.90;;;;;;5051590;28;20528;-48
2022/08/02 12:06:28;;;;;;;1.70;1.33;;;22.40;99.90;;;;;;5051345;28;20434;-50
2022/08/02 12:09:02;;;;;;;12.43;2.20;;;22.40;99.90;;;;;;5051329;28;20830;-49
2022/08/02 12:11:29;;;;;;;2.20;1.30;;;22.40;99.90;;;;;;5051499;28;20490;-50
2022/08/02 12:13:57;;;;;;;4.60;1.20;;;22.40;99.90;;;;;;5051408;28;20499;-48
2022/08/02 12:19:18;;;;;;;162.23;20.87;;;22.50;99.90;;;;;;5017473;28;20540;-48
2022/08/02 12:21:47;;;;;;;63.50;10.07;;;22.50;99.90;;;;;;5051364;28;20461;-50
2022/08/02 12:24:26;;;;;;;19.90;3.00;;;22.50;99.90;;;;;;5051127;28;20519;-49
2022/08/02 12:26:53;;;;;;;4.40;1.93;;;22.50;99.90;;;;;;5051190;28;20433;-50
2022/08/02 12:29:30;;;;;;;2.90;1.20;;;22.50;99.90;;;;;;5051120;28;20441;-49
2022/08/02 12:31:57;;;;;;;2.43;1.17;;;22.60;99.90;;;;;;5051483;28;20873;-49
2022/08/02 12:34:25;;;;;;;2.03;1.20;;;22.60;99.90;;;;;;5051090;28;20465;-49
2022/08/02 12:37:01;;;;;;;43.57;7.37;;;22.70;99.90;;;;;;5051110;28;20457;-49
2022/08/02 12:39:38;;;;;;;9.90;2.47;;;22.70;99.90;;;;;;5050410;28;20502;-48
2022/08/02 12:42:06;;;;;;;8.00;1.20;;;22.90;99.90;;;;;;5051202;28;20731;-48
2022/08/02 12:44:36;;;;;;;1.70;0.90;;;23.00;99.90;;;;;;5050841;28;20547;-48
2022/08/02 12:47:05;;;;;;;1.80;1.23;;;23.10;99.90;;;;;;5050965;28;20503;-50
2022/08/02 12:49:32;;;;;;;2.60;0.87;;;23.10;99.90;;;;;;5050664;28;20527;-51
2022/08/02 12:52:01;;;;;;;1.33;0.70;;;23.20;99.90;;;;;;5050761;28;20473;-49
2022/08/02 12:54:31;;;;;;;1.30;0.83;;;23.20;99.90;;;;;;5050853;28;20930;-49
2022/08/02 12:56:58;;;;;;;2.50;0.87;;;23.20;99.90;;;;;;5050601;28;20495;-49
2022/08/02 12:59:37;;;;;;;1.70;1.00;;;23.10;99.90;;;;;;5049942;28;20446;-50
2022/08/02 13:02:05;;;;;;;1.60;1.00;;;23.10;99.90;;;;;;5050569;28;21072;-49